createdAt,value
2022-10-23T00:01:26.519Z,12.53
2022-10-23T00:03:57.007Z,12.67
2022-10-23T00:06:27.785Z,12.53
2022-10-23T00:08:56.714Z,14.07
2022-10-23T00:11:27.326Z,12.93
2022-10-23T00:13:57.462Z,13.47
2022-10-23T00:16:25.736Z,11.93
2022-10-23T00:18:54.099Z,12.77
2022-10-23T00:21:25.185Z,12.40
2022-10-23T00:23:55.182Z,12.67
2022-10-23T00:26:23.582Z,12.63
2022-10-23T00:28:53.529Z,12.50
2022-10-23T00:31:23.381Z,11.43
2022-10-23T00:33:52.185Z,13.00
2022-10-23T00:36:22.979Z,12.57
2022-10-23T00:38:51.646Z,11.70
2022-10-23T00:41:23.635Z,12.37
2022-10-23T00:44:05.690Z,13.10
2022-10-23T00:46:34.629Z,11.70
2022-10-23T00:49:04.731Z,11.50
2022-10-23T00:51:42.437Z,11.50
2022-10-23T00:54:23.461Z,12.00
2022-10-23T00:56:55.951Z,11.73
2022-10-23T00:59:24.525Z,12.10
2022-10-23T01:01:53.331Z,11.93
2022-10-23T01:04:22.782Z,12.93
2022-10-23T01:07:01.071Z,12.53
2022-10-23T01:09:35.070Z,13.53
2022-10-23T01:12:11.818Z,12.23
2022-10-23T01:14:49.961Z,13.67
2022-10-23T01:17:26.047Z,13.07
2022-10-23T01:20:08.606Z,12.47
2022-10-23T01:23:04.270Z,12.97
2022-10-23T01:25:56.153Z,11.80
2022-10-23T01:28:30.209Z,11.87
2022-10-23T01:31:01.139Z,13.57
2022-10-23T01:33:40.599Z,12.80
2022-10-23T01:36:14.549Z,12.53
2022-10-23T01:38:47.712Z,12.73
2022-10-23T01:41:29.607Z,11.73
2022-10-23T01:44:05.878Z,12.90
2022-10-23T01:46:37.624Z,12.13
2022-10-23T01:49:12.784Z,12.03
2022-10-23T01:51:46.342Z,11.50
2022-10-23T01:54:18.213Z,12.70
2022-10-23T01:56:49.770Z,12.77
2022-10-23T01:59:25.658Z,12.10
2022-10-23T02:01:59.450Z,11.37
2022-10-23T02:04:32.251Z,12.77
2022-10-23T02:07:01.163Z,12.93
2022-10-23T02:09:29.502Z,13.30
2022-10-23T02:12:09.906Z,12.77
2022-10-23T02:14:47.119Z,11.67
2022-10-23T02:17:22.666Z,12.47
2022-10-23T02:19:58.142Z,13.03
2022-10-23T02:22:30.691Z,12.60
2022-10-23T02:25:04.479Z,12.23
2022-10-23T02:27:37.614Z,13.87
2022-10-23T02:30:13.450Z,14.53
2022-10-23T02:32:46.135Z,13.67
2022-10-23T02:35:17.116Z,14.00
2022-10-23T02:37:53.186Z,13.07
2022-10-23T02:40:31.854Z,13.97
2022-10-23T02:43:05.066Z,13.60
2022-10-23T02:45:42.072Z,13.87
2022-10-23T02:48:18.524Z,13.63
2022-10-23T02:50:55.219Z,13.10
2022-10-23T02:53:33.989Z,13.43
2022-10-23T02:56:07.538Z,12.73
2022-10-23T02:58:44.495Z,13.27
2022-10-23T03:01:18.177Z,13.40
2022-10-23T03:03:50.849Z,15.23
2022-10-23T03:06:19.319Z,15.63
2022-10-23T03:08:55.223Z,14.20
2022-10-23T03:11:26.489Z,14.50
2022-10-23T03:13:56.021Z,12.90
2022-10-23T03:16:25.780Z,13.57
2022-10-23T03:18:56.306Z,15.13
2022-10-23T03:21:25.420Z,14.53
2022-10-23T03:23:55.025Z,14.37
2022-10-23T03:26:43.567Z,13.97
2022-10-23T03:29:11.985Z,14.00
2022-10-23T03:31:47.724Z,14.03
2022-10-23T03:34:17.185Z,15.87
2022-10-23T03:36:46.465Z,14.17
2022-10-23T03:39:15.863Z,13.80
2022-10-23T03:41:44.166Z,14.67
2022-10-23T03:44:12.520Z,14.63
2022-10-23T03:46:48.047Z,14.85
2022-10-23T03:49:16.427Z,14.63
2022-10-23T03:51:51.978Z,16.00
2022-10-23T03:54:24.403Z,15.53
2022-10-23T03:56:56.519Z,14.60
2022-10-23T03:59:26.071Z,14.87
2022-10-23T04:01:56.491Z,14.67
2022-10-23T04:04:26.124Z,15.03
2022-10-23T04:06:55.195Z,15.17
2022-10-23T04:09:24.022Z,15.00
2022-10-23T04:11:52.249Z,15.47
2022-10-23T04:14:20.545Z,14.83
2022-10-23T04:16:48.789Z,16.40
2022-10-23T04:19:18.698Z,16.25
2022-10-23T04:21:46.978Z,14.97
2022-10-23T04:24:15.478Z,16.23
2022-10-23T04:26:44.059Z,16.37
2022-10-23T04:29:12.607Z,15.05
2022-10-23T04:31:41.550Z,15.10
2022-10-23T04:34:09.975Z,15.57
2022-10-23T04:36:39.622Z,14.67
2022-10-23T04:39:10.980Z,16.33
2022-10-23T04:41:40.078Z,16.25
2022-10-23T04:44:08.795Z,14.97
2022-10-23T04:46:40.145Z,13.50
2022-10-23T04:49:08.506Z,14.20
2022-10-23T04:51:52.869Z,14.45
2022-10-23T04:54:44.503Z,15.07
2022-10-23T04:57:30.052Z,14.07
2022-10-23T05:00:03.748Z,14.37
2022-10-23T05:02:38.271Z,13.97
2022-10-23T05:05:08.116Z,13.13
2022-10-23T05:07:39.276Z,13.87
2022-10-23T05:10:31.298Z,13.65
2022-10-23T05:13:07.571Z,12.93
2022-10-23T05:15:36.198Z,13.47
2022-10-23T05:18:12.717Z,14.02
2022-10-23T05:20:41.760Z,12.95
2022-10-23T05:23:16.352Z,13.73
2022-10-23T05:25:53.769Z,13.02
2022-10-23T05:28:23.259Z,13.15
2022-10-23T05:30:51.831Z,13.80
2022-10-23T05:33:20.291Z,13.73
2022-10-23T05:35:51.217Z,13.13
2022-10-23T05:38:21.028Z,14.40
2022-10-23T05:40:52.463Z,12.10
2022-10-23T05:43:22.102Z,13.63
2022-10-23T05:45:54.186Z,13.40
2022-10-23T05:48:34.560Z,12.40
2022-10-23T05:51:23.393Z,12.20
2022-10-23T05:54:13.265Z,13.10
2022-10-23T05:57:00.278Z,12.97
2022-10-23T05:59:46.345Z,12.00
2022-10-23T06:02:34.577Z,13.60
2022-10-23T06:05:12.662Z,12.10
2022-10-23T06:07:59.820Z,13.75
2022-10-23T06:10:29.803Z,13.77
2022-10-23T06:13:01.240Z,13.00
2022-10-23T06:15:30.473Z,12.70
2022-10-23T06:18:04.930Z,14.18
2022-10-23T06:20:38.358Z,12.77
2022-10-23T06:23:11.888Z,13.43
2022-10-23T06:26:01.813Z,13.87
2022-10-23T06:28:41.034Z,12.73
2022-10-23T06:31:11.137Z,13.40
2022-10-23T06:33:39.463Z,12.93
2022-10-23T06:36:10.744Z,13.90
2022-10-23T06:38:41.921Z,14.57
2022-10-23T06:41:15.105Z,14.88
2022-10-23T06:43:44.991Z,12.43
2022-10-23T06:46:21.379Z,13.60
2022-10-23T06:49:05.123Z,12.47
2022-10-23T06:51:39.745Z,13.07
2022-10-23T06:54:12.511Z,13.05
2022-10-23T06:56:51.329Z,13.73
2022-10-23T06:59:23.855Z,13.97
2022-10-23T07:04:23.782Z,13.63
2022-10-23T07:06:51.990Z,13.17
2022-10-23T07:09:26.607Z,14.10
2022-10-23T07:11:56.278Z,13.05
2022-10-23T07:14:40.759Z,13.73
2022-10-23T07:17:09.256Z,14.07
2022-10-23T07:19:37.482Z,13.53
2022-10-23T07:22:13.270Z,13.43
2022-10-23T07:24:44.254Z,13.15
2022-10-23T07:27:22.620Z,12.30
2022-10-23T07:29:57.343Z,13.27
2022-10-23T07:32:28.220Z,12.80
2022-10-23T07:35:22.791Z,13.25
2022-10-23T07:37:56.756Z,12.07
2022-10-23T07:40:25.295Z,12.68
2022-10-23T07:42:58.174Z,12.80
2022-10-23T07:45:27.461Z,12.35
2022-10-23T07:47:55.714Z,13.65
2022-10-23T07:50:27.375Z,12.10
2022-10-23T07:52:57.251Z,12.45
2022-10-23T07:55:34.177Z,11.55
2022-10-23T07:58:12.558Z,11.80
2022-10-23T08:00:45.314Z,12.23
2022-10-23T08:03:24.500Z,12.45
2022-10-23T08:05:54.788Z,12.47
2022-10-23T08:08:24.538Z,12.88
2022-10-23T08:10:57.300Z,12.18
2022-10-23T08:13:33.061Z,12.80
2022-10-23T08:16:05.878Z,12.50
2022-10-23T08:18:53.586Z,12.40
2022-10-23T08:21:22.148Z,12.97
2022-10-23T08:23:55.610Z,12.05
2022-10-23T08:26:25.813Z,12.32
2022-10-23T08:28:56.175Z,12.75
2022-10-23T08:31:25.579Z,12.32
2022-10-23T08:34:22.968Z,12.77
2022-10-23T08:36:54.343Z,12.23
2022-10-23T08:39:22.616Z,12.82
2022-10-23T08:42:26.101Z,11.68
2022-10-23T08:45:06.318Z,11.90
2022-10-23T08:47:42.205Z,12.20
2022-10-23T08:50:34.058Z,11.43
2022-10-23T08:53:08.348Z,11.80
2022-10-23T08:55:39.721Z,11.02
2022-10-23T08:58:15.405Z,11.88
2022-10-23T09:00:47.702Z,12.95
2022-10-23T09:03:16.737Z,12.98
2022-10-23T09:05:56.023Z,12.32
2022-10-23T09:08:35.763Z,13.68
2022-10-23T09:11:08.805Z,12.48
2022-10-23T09:14:10.002Z,13.13
2022-10-23T09:16:52.429Z,13.45
2022-10-23T09:19:25.391Z,12.10
2022-10-23T09:21:54.344Z,12.52
2022-10-23T09:24:24.591Z,11.27
2022-10-23T09:26:54.876Z,11.90
2022-10-23T09:29:26.074Z,11.82
2022-10-23T09:31:57.647Z,11.80
2022-10-23T09:34:28.001Z,12.75
2022-10-23T09:36:58.185Z,12.02
2022-10-23T09:39:30.383Z,11.98
2022-10-23T09:41:59.728Z,12.50
2022-10-23T09:44:29.852Z,12.75
2022-10-23T09:47:11.386Z,12.50
2022-10-23T09:49:41.790Z,12.50
2022-10-23T09:52:24.746Z,11.75
2022-10-23T09:54:56.984Z,12.38
2022-10-23T09:57:30.566Z,11.05
2022-10-23T10:00:02.398Z,11.98
2022-10-23T10:02:42.522Z,11.90
2022-10-23T10:05:32.666Z,11.23
2022-10-23T10:08:11.925Z,12.00
2022-10-23T10:10:46.878Z,11.98
2022-10-23T10:13:37.401Z,11.27
2022-10-23T10:16:12.531Z,12.73
2022-10-23T10:18:47.319Z,12.65
2022-10-23T10:21:22.346Z,11.25
2022-10-23T10:24:00.652Z,13.30
2022-10-23T10:26:36.258Z,12.95
2022-10-23T10:29:18.242Z,11.52
2022-10-23T10:31:58.491Z,11.50
2022-10-23T10:34:34.063Z,12.70
2022-10-23T10:37:14.293Z,11.75
2022-10-23T10:39:49.093Z,11.93
2022-10-23T10:42:43.571Z,10.85
2022-10-23T10:45:31.572Z,12.10
2022-10-23T10:48:16.981Z,11.90
2022-10-23T10:51:16.786Z,11.50
2022-10-23T10:54:11.361Z,10.43
2022-10-23T10:56:43.087Z,11.15
2022-10-23T10:59:18.538Z,11.30
2022-10-23T11:01:53.808Z,10.57
2022-10-23T11:04:33.425Z,11.75
2022-10-23T11:07:08.751Z,10.75
2022-10-23T11:09:37.154Z,10.95
2022-10-23T11:12:05.916Z,11.30
2022-10-23T11:14:35.892Z,11.30
2022-10-23T11:17:09.317Z,10.88
2022-10-23T11:19:42.407Z,10.10
2022-10-23T11:22:21.079Z,11.15
2022-10-23T11:25:19.475Z,9.40
2022-10-23T11:28:10.597Z,9.88
2022-10-23T11:30:55.821Z,11.40
2022-10-23T11:33:51.189Z,10.73
2022-10-23T11:36:22.685Z,10.45
2022-10-23T11:38:59.258Z,11.13
2022-10-23T11:41:34.173Z,10.30
2022-10-23T11:44:05.814Z,10.20
2022-10-23T11:46:40.622Z,9.65
2022-10-23T11:49:22.402Z,11.00
2022-10-23T11:52:01.814Z,9.55
2022-10-23T11:54:31.786Z,9.70
2022-10-23T11:57:12.592Z,10.63
2022-10-23T11:59:55.863Z,10.98
2022-10-23T12:02:34.169Z,9.77
2022-10-23T12:05:06.799Z,8.93
2022-10-23T12:07:38.688Z,9.23
2022-10-23T12:10:20.987Z,8.32
2022-10-23T12:12:57.754Z,9.50
2022-10-23T12:15:30.481Z,9.57
2022-10-23T12:18:14.758Z,9.73
2022-10-23T12:20:49.574Z,9.95
2022-10-23T12:23:31.113Z,9.38
2022-10-23T12:26:20.569Z,10.40
2022-10-23T12:28:58.387Z,8.90
2022-10-23T12:31:38.564Z,9.25
2022-10-23T12:34:19.921Z,9.88
2022-10-23T12:37:04.794Z,9.88
2022-10-23T12:39:36.420Z,9.38
2022-10-23T12:42:07.886Z,10.98
2022-10-23T12:44:36.139Z,10.50
2022-10-23T12:47:05.826Z,9.20
2022-10-23T12:49:35.658Z,10.70
2022-10-23T12:52:06.534Z,9.68
2022-10-23T12:54:40.829Z,11.45
2022-10-23T12:57:21.172Z,9.68
2022-10-23T12:59:52.592Z,10.55
2022-10-23T13:02:25.968Z,10.35
2022-10-23T13:04:56.165Z,10.55
2022-10-23T13:07:27.390Z,10.73
2022-10-23T13:09:59.445Z,10.48
2022-10-23T13:12:34.840Z,10.23
2022-10-23T13:15:14.942Z,10.63
2022-10-23T13:17:45.493Z,9.98
2022-10-23T13:20:26.488Z,10.27
2022-10-23T13:23:00.751Z,9.75
2022-10-23T13:25:31.884Z,9.45
2022-10-23T13:28:24.785Z,10.48
2022-10-23T13:31:02.754Z,11.02
2022-10-23T13:33:35.941Z,10.82
2022-10-23T13:36:07.372Z,9.77
2022-10-23T13:38:37.644Z,10.35
2022-10-23T13:41:12.561Z,10.57
2022-10-23T13:43:43.245Z,9.77
2022-10-23T13:46:16.087Z,11.57
2022-10-23T13:48:44.460Z,10.60
2022-10-23T13:51:15.245Z,10.57
2022-10-23T13:53:43.675Z,10.18
2022-10-23T13:56:13.818Z,12.52
2022-10-23T13:58:43.694Z,10.55
2022-10-23T14:01:21.879Z,11.75
2022-10-23T14:03:50.327Z,10.20
2022-10-23T14:06:18.626Z,10.45
2022-10-23T14:08:47.364Z,11.15
2022-10-23T14:11:18.218Z,11.02
2022-10-23T14:13:48.739Z,10.90
2022-10-23T14:16:19.551Z,11.05
2022-10-23T14:18:47.974Z,11.15
2022-10-23T14:21:20.017Z,12.30
2022-10-23T14:23:49.143Z,10.75
2022-10-23T14:26:19.396Z,11.63
2022-10-23T14:28:49.538Z,12.20
2022-10-23T14:31:18.919Z,11.55
2022-10-23T14:33:52.937Z,12.07
2022-10-23T14:36:22.026Z,12.30
2022-10-23T14:38:55.473Z,10.60
2022-10-23T14:41:24.125Z,11.80
2022-10-23T14:43:55.234Z,11.73
2022-10-23T14:46:25.170Z,12.88
2022-10-23T14:48:57.497Z,12.05
2022-10-23T14:51:30.456Z,12.15
2022-10-23T14:54:01.688Z,12.35
2022-10-23T14:56:31.813Z,12.35
2022-10-23T14:59:03.738Z,12.25
2022-10-23T15:01:32.958Z,10.73
2022-10-23T15:04:01.258Z,13.32
2022-10-23T15:06:29.583Z,11.65
2022-10-23T15:08:58.029Z,12.23
2022-10-23T15:11:27.474Z,12.82
2022-10-23T15:13:56.614Z,13.50
2022-10-23T15:16:26.414Z,12.93
2022-10-23T15:18:54.760Z,12.20
2022-10-23T15:21:23.115Z,12.70
2022-10-23T15:23:51.323Z,13.00
2022-10-23T15:26:23.138Z,12.98
2022-10-23T15:28:55.099Z,12.80
2022-10-23T15:31:43.475Z,12.93
2022-10-23T15:34:13.828Z,13.18
2022-10-23T15:36:42.729Z,12.77
2022-10-23T15:39:12.766Z,13.40
2022-10-23T15:41:42.776Z,13.23
2022-10-23T15:44:15.351Z,13.27
2022-10-23T15:46:45.124Z,13.65
2022-10-23T15:49:14.229Z,13.43
2022-10-23T15:51:43.451Z,14.02
2022-10-23T15:54:16.644Z,12.18
2022-10-23T15:56:46.409Z,13.93
2022-10-23T15:59:14.781Z,12.50
2022-10-23T16:01:44.850Z,13.50
2022-10-23T16:04:13.414Z,12.63
2022-10-23T16:06:41.741Z,13.90
2022-10-23T16:09:10.132Z,12.55
2022-10-23T16:11:40.006Z,14.00
2022-10-23T16:14:11.867Z,12.25
2022-10-23T16:16:40.156Z,12.40
2022-10-23T16:19:11.631Z,13.00
2022-10-23T16:21:40.016Z,12.60
2022-10-23T16:24:09.877Z,11.70
2022-10-23T16:26:39.336Z,13.02
2022-10-23T16:29:09.722Z,13.98
2022-10-23T16:31:38.099Z,12.90
2022-10-23T16:34:07.137Z,14.02
2022-10-23T16:36:39.128Z,11.93
2022-10-23T16:39:25.889Z,11.70
2022-10-23T16:42:12.939Z,13.52
2022-10-23T16:45:04.005Z,11.65
2022-10-23T16:47:32.639Z,12.52
2022-10-23T16:50:01.008Z,13.65
2022-10-23T16:52:30.957Z,13.38
2022-10-23T16:54:59.287Z,11.55
2022-10-23T16:57:28.096Z,11.57
2022-10-23T16:59:56.719Z,12.68
2022-10-23T17:02:25.356Z,12.13
2022-10-23T17:04:53.717Z,12.13
2022-10-23T17:07:24.122Z,12.48
2022-10-23T17:09:54.115Z,12.80
2022-10-23T17:12:22.492Z,12.82
2022-10-23T17:14:50.808Z,12.30
2022-10-23T17:17:18.998Z,12.18
2022-10-23T17:19:47.278Z,11.77
2022-10-23T17:22:16.050Z,12.07
2022-10-23T17:24:48.701Z,12.52
2022-10-23T17:27:21.655Z,12.75
2022-10-23T17:29:50.042Z,12.00
2022-10-23T17:32:18.527Z,12.52
2022-10-23T17:34:47.884Z,12.65
2022-10-23T17:37:17.314Z,14.00
2022-10-23T17:39:45.582Z,13.20
2022-10-23T17:42:13.793Z,11.27
2022-10-23T17:44:43.457Z,12.85
2022-10-23T17:47:11.762Z,12.07
2022-10-23T17:49:42.809Z,11.95
2022-10-23T17:52:15.133Z,11.98
2022-10-23T17:54:43.510Z,12.65
2022-10-23T17:57:13.883Z,12.52
2022-10-23T17:59:43.582Z,12.65
2022-10-23T18:02:13.429Z,13.25
2022-10-23T18:04:41.797Z,12.02
2022-10-23T18:07:10.097Z,12.27
2022-10-23T18:09:38.329Z,11.43
2022-10-23T18:12:06.694Z,12.30
2022-10-23T18:14:37.376Z,11.70
2022-10-23T18:17:07.431Z,13.43
2022-10-23T18:19:36.555Z,13.30
2022-10-23T18:22:05.377Z,13.40
2022-10-23T18:24:33.925Z,14.18
2022-10-23T18:27:02.547Z,13.95
2022-10-23T18:29:30.810Z,13.45
2022-10-23T18:31:59.282Z,13.93
2022-10-23T18:34:29.050Z,13.45
2022-10-23T18:36:57.347Z,13.82
2022-10-23T18:39:33.822Z,13.15
2022-10-23T18:42:02.821Z,12.88
2022-10-23T18:44:30.986Z,12.88
2022-10-23T18:47:00.787Z,12.82
2022-10-23T18:49:30.738Z,12.10
2022-10-23T18:51:59.533Z,13.30
2022-10-23T18:54:27.733Z,12.98
2022-10-23T18:56:56.303Z,13.18
2022-10-23T18:59:24.595Z,13.27
2022-10-23T19:01:53.482Z,12.00
2022-10-23T19:04:21.889Z,11.38
2022-10-23T19:06:52.173Z,12.27
2022-10-23T19:09:21.474Z,13.07
2022-10-23T19:11:50.126Z,12.52
2022-10-23T19:14:19.170Z,12.43
2022-10-23T19:16:58.443Z,13.30
2022-10-23T19:19:30.093Z,12.15
2022-10-23T19:22:00.731Z,13.57
2022-10-23T19:24:34.548Z,13.10
2022-10-23T19:27:03.855Z,13.63
2022-10-23T19:29:32.754Z,12.45
2022-10-23T19:32:02.080Z,12.32
2022-10-23T19:34:30.403Z,12.47
2022-10-23T19:37:00.130Z,12.40
2022-10-23T19:39:28.556Z,12.07
2022-10-23T19:41:57.735Z,13.70
2022-10-23T19:44:26.262Z,12.55
2022-10-23T19:46:54.570Z,13.80
2022-10-23T19:49:24.021Z,12.88
2022-10-23T19:51:52.511Z,12.80
2022-10-23T19:54:22.756Z,14.52
2022-10-23T19:56:51.402Z,14.00
2022-10-23T19:59:20.097Z,14.02
2022-10-23T20:01:49.419Z,13.35
2022-10-23T20:04:18.876Z,13.18
2022-10-23T20:06:48.073Z,12.43
2022-10-23T20:09:16.889Z,13.57
2022-10-23T20:11:46.521Z,14.07
2022-10-23T20:14:17.365Z,13.95
2022-10-23T20:16:48.065Z,13.60
2022-10-23T20:19:18.872Z,12.98
2022-10-23T20:21:49.305Z,13.63
2022-10-23T20:24:19.563Z,14.48
2022-10-23T20:26:52.425Z,13.10
2022-10-23T20:29:21.708Z,13.60
2022-10-23T20:31:50.050Z,13.88
2022-10-23T20:34:19.199Z,13.07
2022-10-23T20:36:49.862Z,13.75
2022-10-23T20:39:20.481Z,14.90
2022-10-23T20:41:50.162Z,13.25
2022-10-23T20:44:19.503Z,13.70
2022-10-23T20:46:47.825Z,15.00
2022-10-23T20:49:16.678Z,13.83
2022-10-23T20:51:45.154Z,13.20
2022-10-23T20:54:13.458Z,14.63
2022-10-23T20:56:42.098Z,13.88
2022-10-23T20:59:15.560Z,14.20
2022-10-23T21:01:48.684Z,14.38
2022-10-23T21:04:18.634Z,14.23
2022-10-23T21:07:08.267Z,13.38
2022-10-23T21:09:35.556Z,14.65
2022-10-23T21:12:04.782Z,13.90
2022-10-23T21:14:34.643Z,13.75
2022-10-23T21:17:03.472Z,14.35
2022-10-23T21:19:31.805Z,13.77
2022-10-23T21:22:00.045Z,13.65
2022-10-23T21:24:28.669Z,13.43
2022-10-23T21:26:56.891Z,14.00
2022-10-23T21:29:25.268Z,13.95
2022-10-23T21:31:56.516Z,12.88
2022-10-23T21:34:25.601Z,14.80
2022-10-23T21:39:42.680Z,14.23
2022-10-23T21:42:12.577Z,13.85
2022-10-23T21:44:40.933Z,13.40
2022-10-23T21:47:10.787Z,13.77
2022-10-23T21:49:39.174Z,14.20
2022-10-23T21:52:07.517Z,14.95
2022-10-23T21:54:35.834Z,14.25
2022-10-23T21:57:04.392Z,14.07
2022-10-23T21:59:36.021Z,14.98
2022-10-23T22:02:04.813Z,14.05
2022-10-23T22:04:34.989Z,14.70
2022-10-23T22:07:04.343Z,13.68
2022-10-23T22:09:34.357Z,14.57
2022-10-23T22:12:03.030Z,14.90
2022-10-23T22:14:31.221Z,14.32
2022-10-23T22:16:59.993Z,13.15
2022-10-23T22:19:28.333Z,12.27
2022-10-23T22:21:58.203Z,14.23
2022-10-23T22:24:26.926Z,13.02
2022-10-23T22:26:57.129Z,12.90
2022-10-23T22:29:27.950Z,13.45
2022-10-23T22:31:56.807Z,13.48
2022-10-23T22:34:51.405Z,13.43
2022-10-23T22:37:17.519Z,14.45
2022-10-23T22:39:45.864Z,13.25
2022-10-23T22:42:14.236Z,12.90
2022-10-23T22:44:42.465Z,13.27
2022-10-23T22:47:11.747Z,15.20
2022-10-23T22:49:40.002Z,13.57
2022-10-23T22:52:08.361Z,12.80
2022-10-23T22:54:38.033Z,12.70
2022-10-23T22:57:06.336Z,13.68
2022-10-23T22:59:34.636Z,12.55
2022-10-23T23:02:03.386Z,13.57
2022-10-23T23:04:39.347Z,12.75
2022-10-23T23:07:10.863Z,12.63
2022-10-23T23:09:42.127Z,12.75
2022-10-23T23:12:12.381Z,13.18
2022-10-23T23:14:41.710Z,12.35
2022-10-23T23:17:11.090Z,13.55
2022-10-23T23:19:40.025Z,12.90
2022-10-23T23:22:08.386Z,11.77
2022-10-23T23:24:36.719Z,11.80
2022-10-23T23:27:06.346Z,12.10
2022-10-23T23:29:34.897Z,11.80
2022-10-23T23:32:06.185Z,11.25
2022-10-23T23:34:34.457Z,11.65
2022-10-23T23:37:02.886Z,12.25
2022-10-23T23:39:31.311Z,12.27
2022-10-23T23:41:59.530Z,12.02
2022-10-23T23:44:29.297Z,12.30
2022-10-23T23:46:57.538Z,12.57
2022-10-23T23:49:25.918Z,13.32
2022-10-23T23:51:54.214Z,11.90
2022-10-23T23:54:22.574Z,12.30
2022-10-23T23:56:50.815Z,12.65
2022-10-23T23:59:19.014Z,11.55
